sensor_id;sensor_type;location;lat;lon;timestamp;P1;durP1;ratioP1;P2;durP2;ratioP2
43088;SDS011;28709;52.030;5.652;2023-02-28T00:02:14;2.95;;;1.45;;
43088;SDS011;28709;52.030;5.652;2023-02-28T00:04:42;4.13;;;1.83;;
43088;SDS011;28709;52.030;5.652;2023-02-28T00:07:08;4.55;;;1.42;;
43088;SDS011;28709;52.030;5.652;2023-02-28T00:09:34;4.20;;;1.58;;
43088;SDS011;28709;52.030;5.652;2023-02-28T00:11:59;4.40;;;1.60;;
43088;SDS011;28709;52.030;5.652;2023-02-28T00:14:25;2.58;;;1.42;;
43088;SDS011;28709;52.030;5.652;2023-02-28T00:16:50;5.13;;;2.20;;
43088;SDS011;28709;52.030;5.652;2023-02-28T00:19:16;3.70;;;1.55;;
43088;SDS011;28709;52.030;5.652;2023-02-28T00:21:42;3.78;;;2.00;;
43088;SDS011;28709;52.030;5.652;2023-02-28T00:24:07;2.42;;;1.50;;
43088;SDS011;28709;52.030;5.652;2023-02-28T00:26:33;2.50;;;1.60;;
43088;SDS011;28709;52.030;5.652;2023-02-28T00:28:59;2.33;;;1.33;;
43088;SDS011;28709;52.030;5.652;2023-02-28T00:31:24;4.60;;;1.90;;
43088;SDS011;28709;52.030;5.652;2023-02-28T00:33:50;3.80;;;1.70;;
43088;SDS011;28709;52.030;5.652;2023-02-28T00:36:16;3.42;;;1.95;;
43088;SDS011;28709;52.030;5.652;2023-02-28T00:38:42;2.85;;;1.50;;
43088;SDS011;28709;52.030;5.652;2023-02-28T00:41:08;4.00;;;2.25;;
43088;SDS011;28709;52.030;5.652;2023-02-28T00:43:35;5.68;;;2.20;;
43088;SDS011;28709;52.030;5.652;2023-02-28T00:46:02;4.18;;;1.95;;
43088;SDS011;28709;52.030;5.652;2023-02-28T00:48:29;3.50;;;2.03;;
43088;SDS011;28709;52.030;5.652;2023-02-28T00:50:55;6.00;;;2.03;;
43088;SDS011;28709;52.030;5.652;2023-02-28T00:53:21;6.93;;;3.22;;
43088;SDS011;28709;52.030;5.652;2023-02-28T00:55:48;4.65;;;1.85;;
43088;SDS011;28709;52.030;5.652;2023-02-28T00:58:14;5.40;;;2.58;;
43088;SDS011;28709;52.030;5.652;2023-02-28T01:00:40;4.43;;;2.42;;
43088;SDS011;28709;52.030;5.652;2023-02-28T01:03:05;5.60;;;2.78;;
43088;SDS011;28709;52.030;5.652;2023-02-28T01:05:31;4.53;;;2.42;;
43088;SDS011;28709;52.030;5.652;2023-02-28T01:07:57;6.10;;;2.63;;
43088;SDS011;28709;52.030;5.652;2023-02-28T01:10:22;6.25;;;2.35;;
43088;SDS011;28709;52.030;5.652;2023-02-28T01:12:49;4.82;;;2.45;;
43088;SDS011;28709;52.030;5.652;2023-02-28T01:15:15;7.25;;;2.95;;
43088;SDS011;28709;52.030;5.652;2023-02-28T01:17:40;3.80;;;2.47;;
43088;SDS011;28709;52.030;5.652;2023-02-28T01:20:06;6.35;;;2.53;;
43088;SDS011;28709;52.030;5.652;2023-02-28T01:22:34;4.93;;;2.40;;
43088;SDS011;28709;52.030;5.652;2023-02-28T01:25:00;4.15;;;2.40;;
43088;SDS011;28709;52.030;5.652;2023-02-28T01:27:25;5.00;;;2.15;;
43088;SDS011;28709;52.030;5.652;2023-02-28T01:29:51;6.35;;;2.75;;
43088;SDS011;28709;52.030;5.652;2023-02-28T01:32:17;4.40;;;2.33;;
43088;SDS011;28709;52.030;5.652;2023-02-28T01:34:43;6.70;;;2.55;;
43088;SDS011;28709;52.030;5.652;2023-02-28T01:37:08;3.25;;;2.13;;
43088;SDS011;28709;52.030;5.652;2023-02-28T01:39:34;4.53;;;2.28;;
43088;SDS011;28709;52.030;5.652;2023-02-28T01:41:59;7.15;;;2.20;;
43088;SDS011;28709;52.030;5.652;2023-02-28T01:47:35;4.95;;;2.10;;
43088;SDS011;28709;52.030;5.652;2023-02-28T01:50:04;5.63;;;2.90;;
43088;SDS011;28709;52.030;5.652;2023-02-28T01:52:34;4.97;;;2.42;;
43088;SDS011;28709;52.030;5.652;2023-02-28T01:55:01;4.18;;;2.08;;
43088;SDS011;28709;52.030;5.652;2023-02-28T01:57:30;4.53;;;2.03;;
43088;SDS011;28709;52.030;5.652;2023-02-28T02:00:06;5.88;;;2.17;;
43088;SDS011;28709;52.030;5.652;2023-02-28T02:02:35;7.97;;;2.85;;
43088;SDS011;28709;52.030;5.652;2023-02-28T02:05:12;6.75;;;2.45;;
43088;SDS011;28709;52.030;5.652;2023-02-28T02:07:42;4.85;;;1.98;;
43088;SDS011;28709;52.030;5.652;2023-02-28T02:18:08;4.90;;;2.15;;
43088;SDS011;28709;52.030;5.652;2023-02-28T02:20:58;3.42;;;1.60;;
43088;SDS011;28709;52.030;5.652;2023-02-28T02:37:29;3.92;;;1.92;;
43088;SDS011;28709;52.030;5.652;2023-02-28T02:40:19;4.05;;;2.22;;
43088;SDS011;28709;52.030;5.652;2023-02-28T02:42:56;3.67;;;2.15;;
43088;SDS011;28709;52.030;5.652;2023-02-28T02:45:28;4.10;;;2.15;;
43088;SDS011;28709;52.030;5.652;2023-02-28T02:48:04;5.30;;;2.00;;
43088;SDS011;28709;52.030;5.652;2023-02-28T02:50:44;5.60;;;2.03;;
43088;SDS011;28709;52.030;5.652;2023-02-28T02:53:14;1.98;;;1.60;;
43088;SDS011;28709;52.030;5.652;2023-02-28T02:55:43;5.80;;;2.50;;
43088;SDS011;28709;52.030;5.652;2023-02-28T02:58:14;4.03;;;2.10;;
43088;SDS011;28709;52.030;5.652;2023-02-28T03:00:45;3.30;;;1.83;;
43088;SDS011;28709;52.030;5.652;2023-02-28T03:03:14;6.10;;;2.60;;
43088;SDS011;28709;52.030;5.652;2023-02-28T03:05:47;7.63;;;3.42;;
43088;SDS011;28709;52.030;5.652;2023-02-28T03:08:14;3.63;;;1.90;;
43088;SDS011;28709;52.030;5.652;2023-02-28T03:10:43;5.32;;;2.17;;
43088;SDS011;28709;52.030;5.652;2023-02-28T03:13:21;6.93;;;2.00;;
43088;SDS011;28709;52.030;5.652;2023-02-28T03:21:49;6.45;;;2.60;;
43088;SDS011;28709;52.030;5.652;2023-02-28T03:24:19;4.90;;;2.10;;
43088;SDS011;28709;52.030;5.652;2023-02-28T03:27:02;5.60;;;2.78;;
43088;SDS011;28709;52.030;5.652;2023-02-28T03:29:33;6.18;;;2.30;;
43088;SDS011;28709;52.030;5.652;2023-02-28T03:32:08;5.70;;;2.30;;
43088;SDS011;28709;52.030;5.652;2023-02-28T03:34:47;8.30;;;3.53;;
43088;SDS011;28709;52.030;5.652;2023-02-28T03:37:19;6.50;;;2.63;;
43088;SDS011;28709;52.030;5.652;2023-02-28T03:39:51;5.05;;;2.67;;
43088;SDS011;28709;52.030;5.652;2023-02-28T03:42:23;5.28;;;2.63;;
43088;SDS011;28709;52.030;5.652;2023-02-28T03:47:24;10.35;;;3.83;;
43088;SDS011;28709;52.030;5.652;2023-02-28T03:49:58;6.30;;;2.50;;
43088;SDS011;28709;52.030;5.652;2023-02-28T03:52:25;6.60;;;3.05;;
43088;SDS011;28709;52.030;5.652;2023-02-28T03:54:56;5.70;;;3.17;;
43088;SDS011;28709;52.030;5.652;2023-02-28T04:00:28;5.85;;;2.35;;
43088;SDS011;28709;52.030;5.652;2023-02-28T04:03:03;4.53;;;2.20;;
43088;SDS011;28709;52.030;5.652;2023-02-28T04:05:29;5.00;;;1.92;;
43088;SDS011;28709;52.030;5.652;2023-02-28T04:08:06;7.68;;;2.88;;
43088;SDS011;28709;52.030;5.652;2023-02-28T04:10:33;3.45;;;2.20;;
43088;SDS011;28709;52.030;5.652;2023-02-28T04:12:59;7.32;;;3.05;;
43088;SDS011;28709;52.030;5.652;2023-02-28T04:15:24;5.50;;;1.65;;
43088;SDS011;28709;52.030;5.652;2023-02-28T04:17:52;4.05;;;1.90;;
43088;SDS011;28709;52.030;5.652;2023-02-28T04:20:18;6.35;;;2.55;;
43088;SDS011;28709;52.030;5.652;2023-02-28T04:22:43;2.00;;;1.40;;
43088;SDS011;28709;52.030;5.652;2023-02-28T04:25:09;6.53;;;2.75;;
43088;SDS011;28709;52.030;5.652;2023-02-28T04:27:35;5.28;;;2.05;;
43088;SDS011;28709;52.030;5.652;2023-02-28T04:30:00;3.03;;;1.48;;
43088;SDS011;28709;52.030;5.652;2023-02-28T04:32:27;5.35;;;1.55;;
43088;SDS011;28709;52.030;5.652;2023-02-28T04:34:53;3.75;;;1.80;;
43088;SDS011;28709;52.030;5.652;2023-02-28T04:37:18;2.65;;;1.73;;
43088;SDS011;28709;52.030;5.652;2023-02-28T04:39:44;9.38;;;2.03;;
43088;SDS011;28709;52.030;5.652;2023-02-28T04:42:10;3.22;;;1.48;;
43088;SDS011;28709;52.030;5.652;2023-02-28T04:44:36;4.13;;;1.30;;
43088;SDS011;28709;52.030;5.652;2023-02-28T04:47:02;2.60;;;1.50;;
43088;SDS011;28709;52.030;5.652;2023-02-28T04:49:28;2.47;;;1.20;;
43088;SDS011;28709;52.030;5.652;2023-02-28T04:51:53;2.50;;;1.10;;
43088;SDS011;28709;52.030;5.652;2023-02-28T04:54:19;2.15;;;1.05;;
43088;SDS011;28709;52.030;5.652;2023-02-28T04:56:45;3.22;;;1.13;;
43088;SDS011;28709;52.030;5.652;2023-02-28T04:59:11;3.35;;;1.20;;
43088;SDS011;28709;52.030;5.652;2023-02-28T05:01:36;9.38;;;1.70;;
43088;SDS011;28709;52.030;5.652;2023-02-28T05:04:03;3.33;;;1.80;;
43088;SDS011;28709;52.030;5.652;2023-02-28T05:06:30;4.20;;;1.55;;
43088;SDS011;28709;52.030;5.652;2023-02-28T05:08:57;2.90;;;1.60;;
43088;SDS011;28709;52.030;5.652;2023-02-28T05:11:24;3.33;;;1.90;;
43088;SDS011;28709;52.030;5.652;2023-02-28T05:13:52;3.35;;;2.00;;
43088;SDS011;28709;52.030;5.652;2023-02-28T05:16:18;4.40;;;1.65;;
43088;SDS011;28709;52.030;5.652;2023-02-28T05:18:44;2.22;;;1.30;;
43088;SDS011;28709;52.030;5.652;2023-02-28T05:21:27;4.50;;;1.60;;
43088;SDS011;28709;52.030;5.652;2023-02-28T05:23:55;2.33;;;1.38;;
43088;SDS011;28709;52.030;5.652;2023-02-28T05:26:22;3.30;;;1.60;;
43088;SDS011;28709;52.030;5.652;2023-02-28T05:28:48;2.33;;;1.27;;
43088;SDS011;28709;52.030;5.652;2023-02-28T05:31:14;2.50;;;1.20;;
43088;SDS011;28709;52.030;5.652;2023-02-28T05:33:40;2.70;;;1.50;;
43088;SDS011;28709;52.030;5.652;2023-02-28T05:36:06;2.40;;;1.45;;
43088;SDS011;28709;52.030;5.652;2023-02-28T05:38:32;4.72;;;2.10;;
43088;SDS011;28709;52.030;5.652;2023-02-28T05:40:58;2.67;;;1.85;;
43088;SDS011;28709;52.030;5.652;2023-02-28T05:43:23;2.65;;;1.67;;
43088;SDS011;28709;52.030;5.652;2023-02-28T05:45:49;5.45;;;2.33;;
43088;SDS011;28709;52.030;5.652;2023-02-28T05:48:15;4.07;;;2.28;;
43088;SDS011;28709;52.030;5.652;2023-02-28T05:50:41;4.10;;;1.98;;
43088;SDS011;28709;52.030;5.652;2023-02-28T05:53:09;2.42;;;1.50;;
43088;SDS011;28709;52.030;5.652;2023-02-28T05:55:35;4.38;;;1.90;;
43088;SDS011;28709;52.030;5.652;2023-02-28T05:58:02;2.95;;;1.23;;
43088;SDS011;28709;52.030;5.652;2023-02-28T06:00:27;1.88;;;1.35;;
43088;SDS011;28709;52.030;5.652;2023-02-28T06:02:53;4.18;;;1.85;;
43088;SDS011;28709;52.030;5.652;2023-02-28T06:05:21;3.85;;;1.88;;
43088;SDS011;28709;52.030;5.652;2023-02-28T06:07:47;3.28;;;1.60;;
43088;SDS011;28709;52.030;5.652;2023-02-28T06:10:13;1.48;;;1.33;;
43088;SDS011;28709;52.030;5.652;2023-02-28T06:12:39;3.17;;;1.52;;
43088;SDS011;28709;52.030;5.652;2023-02-28T06:15:06;2.55;;;1.25;;
43088;SDS011;28709;52.030;5.652;2023-02-28T06:17:33;4.38;;;1.45;;
43088;SDS011;28709;52.030;5.652;2023-02-28T06:19:58;2.35;;;1.27;;
43088;SDS011;28709;52.030;5.652;2023-02-28T06:22:24;2.55;;;1.50;;
43088;SDS011;28709;52.030;5.652;2023-02-28T06:24:49;3.58;;;2.13;;
43088;SDS011;28709;52.030;5.652;2023-02-28T06:27:15;2.95;;;1.70;;
43088;SDS011;28709;52.030;5.652;2023-02-28T06:29:41;2.75;;;1.63;;
43088;SDS011;28709;52.030;5.652;2023-02-28T06:32:07;3.45;;;1.65;;
43088;SDS011;28709;52.030;5.652;2023-02-28T06:34:33;2.58;;;1.60;;
43088;SDS011;28709;52.030;5.652;2023-02-28T06:37:01;3.00;;;1.83;;
43088;SDS011;28709;52.030;5.652;2023-02-28T06:39:27;2.53;;;1.48;;
43088;SDS011;28709;52.030;5.652;2023-02-28T06:41:53;2.78;;;1.67;;
43088;SDS011;28709;52.030;5.652;2023-02-28T06:44:19;1.77;;;1.52;;
43088;SDS011;28709;52.030;5.652;2023-02-28T06:46:45;4.55;;;1.45;;
43088;SDS011;28709;52.030;5.652;2023-02-28T06:49:11;3.38;;;1.63;;
43088;SDS011;28709;52.030;5.652;2023-02-28T06:51:38;3.42;;;1.75;;
43088;SDS011;28709;52.030;5.652;2023-02-28T06:54:07;1.65;;;1.48;;
43088;SDS011;28709;52.030;5.652;2023-02-28T06:56:36;2.67;;;1.70;;
43088;SDS011;28709;52.030;5.652;2023-02-28T06:59:02;3.85;;;1.67;;
43088;SDS011;28709;52.030;5.652;2023-02-28T07:01:28;2.55;;;1.67;;
43088;SDS011;28709;52.030;5.652;2023-02-28T07:03:56;2.55;;;1.38;;
43088;SDS011;28709;52.030;5.652;2023-02-28T07:06:22;2.58;;;1.48;;
43088;SDS011;28709;52.030;5.652;2023-02-28T07:08:49;4.03;;;1.77;;
43088;SDS011;28709;52.030;5.652;2023-02-28T07:11:16;4.13;;;1.55;;
43088;SDS011;28709;52.030;5.652;2023-02-28T07:13:41;6.30;;;2.13;;
43088;SDS011;28709;52.030;5.652;2023-02-28T07:16:08;1.77;;;1.55;;
43088;SDS011;28709;52.030;5.652;2023-02-28T07:18:35;1.70;;;1.40;;
43088;SDS011;28709;52.030;5.652;2023-02-28T07:21:03;2.63;;;1.58;;
43088;SDS011;28709;52.030;5.652;2023-02-28T07:23:30;2.67;;;1.40;;
43088;SDS011;28709;52.030;5.652;2023-02-28T07:25:55;2.53;;;1.33;;
43088;SDS011;28709;52.030;5.652;2023-02-28T07:28:21;2.72;;;1.40;;
43088;SDS011;28709;52.030;5.652;2023-02-28T07:30:47;2.75;;;1.23;;
43088;SDS011;28709;52.030;5.652;2023-02-28T07:33:13;4.20;;;1.60;;
43088;SDS011;28709;52.030;5.652;2023-02-28T07:35:39;3.50;;;1.70;;
43088;SDS011;28709;52.030;5.652;2023-02-28T07:38:04;3.00;;;1.27;;
43088;SDS011;28709;52.030;5.652;2023-02-28T07:40:32;1.90;;;1.30;;
43088;SDS011;28709;52.030;5.652;2023-02-28T07:42:59;2.80;;;1.13;;
43088;SDS011;28709;52.030;5.652;2023-02-28T07:45:26;7.38;;;2.03;;
43088;SDS011;28709;52.030;5.652;2023-02-28T07:47:53;6.97;;;1.80;;
43088;SDS011;28709;52.030;5.652;2023-02-28T07:50:19;8.05;;;1.95;;
43088;SDS011;28709;52.030;5.652;2023-02-28T07:52:45;4.50;;;1.33;;
43088;SDS011;28709;52.030;5.652;2023-02-28T07:55:11;4.93;;;1.45;;
43088;SDS011;28709;52.030;5.652;2023-02-28T07:57:36;2.67;;;1.58;;
43088;SDS011;28709;52.030;5.652;2023-02-28T08:00:06;2.20;;;1.50;;
43088;SDS011;28709;52.030;5.652;2023-02-28T08:02:35;3.17;;;1.40;;
43088;SDS011;28709;52.030;5.652;2023-02-28T08:05:01;4.63;;;1.45;;
43088;SDS011;28709;52.030;5.652;2023-02-28T08:07:27;4.13;;;1.48;;
43088;SDS011;28709;52.030;5.652;2023-02-28T08:09:53;5.45;;;1.65;;
43088;SDS011;28709;52.030;5.652;2023-02-28T08:12:18;3.45;;;1.67;;
43088;SDS011;28709;52.030;5.652;2023-02-28T08:14:44;2.42;;;1.42;;
43088;SDS011;28709;52.030;5.652;2023-02-28T08:17:10;1.48;;;1.05;;
43088;SDS011;28709;52.030;5.652;2023-02-28T08:19:36;5.10;;;1.77;;
43088;SDS011;28709;52.030;5.652;2023-02-28T08:22:02;2.75;;;1.42;;
43088;SDS011;28709;52.030;5.652;2023-02-28T08:24:28;3.03;;;1.63;;
43088;SDS011;28709;52.030;5.652;2023-02-28T08:26:54;4.13;;;1.67;;
43088;SDS011;28709;52.030;5.652;2023-02-28T08:29:20;1.42;;;1.20;;
43088;SDS011;28709;52.030;5.652;2023-02-28T08:31:45;4.40;;;1.38;;
43088;SDS011;28709;52.030;5.652;2023-02-28T08:34:12;1.75;;;1.13;;
43088;SDS011;28709;52.030;5.652;2023-02-28T08:36:39;2.45;;;1.60;;
43088;SDS011;28709;52.030;5.652;2023-02-28T08:39:06;4.20;;;1.35;;
43088;SDS011;28709;52.030;5.652;2023-02-28T08:41:31;2.33;;;1.17;;
43088;SDS011;28709;52.030;5.652;2023-02-28T08:43:57;2.40;;;1.27;;
43088;SDS011;28709;52.030;5.652;2023-02-28T08:46:23;2.40;;;1.15;;
43088;SDS011;28709;52.030;5.652;2023-02-28T08:48:55;2.38;;;0.88;;
43088;SDS011;28709;52.030;5.652;2023-02-28T08:51:27;3.03;;;1.42;;
43088;SDS011;28709;52.030;5.652;2023-02-28T08:53:54;4.13;;;1.17;;
43088;SDS011;28709;52.030;5.652;2023-02-28T08:56:20;2.00;;;1.00;;
43088;SDS011;28709;52.030;5.652;2023-02-28T08:58:47;6.30;;;1.27;;
43088;SDS011;28709;52.030;5.652;2023-02-28T09:03:47;1.33;;;0.85;;
43088;SDS011;28709;52.030;5.652;2023-02-28T09:06:16;4.03;;;1.00;;
43088;SDS011;28709;52.030;5.652;2023-02-28T09:08:43;1.60;;;1.10;;
43088;SDS011;28709;52.030;5.652;2023-02-28T09:11:09;2.70;;;1.23;;
43088;SDS011;28709;52.030;5.652;2023-02-28T09:13:35;1.75;;;0.88;;
43088;SDS011;28709;52.030;5.652;2023-02-28T09:16:02;1.42;;;0.90;;
43088;SDS011;28709;52.030;5.652;2023-02-28T09:18:29;1.48;;;0.95;;
43088;SDS011;28709;52.030;5.652;2023-02-28T09:20:55;3.67;;;1.00;;
43088;SDS011;28709;52.030;5.652;2023-02-28T09:23:22;3.38;;;1.10;;
43088;SDS011;28709;52.030;5.652;2023-02-28T09:25:49;2.17;;;1.10;;
43088;SDS011;28709;52.030;5.652;2023-02-28T09:28:17;1.75;;;0.90;;
43088;SDS011;28709;52.030;5.652;2023-02-28T09:30:46;1.98;;;0.82;;
43088;SDS011;28709;52.030;5.652;2023-02-28T09:33:14;1.98;;;1.10;;
43088;SDS011;28709;52.030;5.652;2023-02-28T09:35:40;1.40;;;1.02;;
43088;SDS011;28709;52.030;5.652;2023-02-28T09:38:07;2.25;;;0.85;;
43088;SDS011;28709;52.030;5.652;2023-02-28T09:40:37;0.95;;;0.80;;
43088;SDS011;28709;52.030;5.652;2023-02-28T09:43:12;2.00;;;0.93;;
43088;SDS011;28709;52.030;5.652;2023-02-28T09:45:41;1.10;;;1.00;;
43088;SDS011;28709;52.030;5.652;2023-02-28T09:48:14;5.40;;;1.35;;
43088;SDS011;28709;52.030;5.652;2023-02-28T09:50:46;2.10;;;1.17;;
43088;SDS011;28709;52.030;5.652;2023-02-28T09:56:10;2.22;;;1.20;;
43088;SDS011;28709;52.030;5.652;2023-02-28T09:58:48;2.33;;;0.90;;
43088;SDS011;28709;52.030;5.652;2023-02-28T10:06:22;4.60;;;1.00;;
43088;SDS011;28709;52.030;5.652;2023-02-28T10:09:02;2.38;;;0.85;;
43088;SDS011;28709;52.030;5.652;2023-02-28T10:11:34;1.65;;;1.10;;
43088;SDS011;28709;52.030;5.652;2023-02-28T10:14:04;1.40;;;1.00;;
43088;SDS011;28709;52.030;5.652;2023-02-28T10:16:59;2.47;;;0.90;;
43088;SDS011;28709;52.030;5.652;2023-02-28T10:22:17;1.83;;;1.00;;
43088;SDS011;28709;52.030;5.652;2023-02-28T10:24:59;1.08;;;0.95;;
43088;SDS011;28709;52.030;5.652;2023-02-28T10:27:31;1.73;;;1.20;;
43088;SDS011;28709;52.030;5.652;2023-02-28T10:30:01;2.17;;;0.80;;
43088;SDS011;28709;52.030;5.652;2023-02-28T10:32:31;2.55;;;1.00;;
43088;SDS011;28709;52.030;5.652;2023-02-28T10:37:44;3.72;;;1.10;;
43088;SDS011;28709;52.030;5.652;2023-02-28T10:40:33;1.95;;;1.10;;
43088;SDS011;28709;52.030;5.652;2023-02-28T10:46:42;0.95;;;0.70;;
43088;SDS011;28709;52.030;5.652;2023-02-28T10:48:40;2.17;;;0.90;;
43088;SDS011;28709;52.030;5.652;2023-02-28T10:51:13;0.98;;;0.90;;
43088;SDS011;28709;52.030;5.652;2023-02-28T11:01:16;2.70;;;1.65;;
43088;SDS011;28709;52.030;5.652;2023-02-28T11:03:42;1.02;;;0.93;;
43088;SDS011;28709;52.030;5.652;2023-02-28T11:08:46;1.58;;;0.88;;
43088;SDS011;28709;52.030;5.652;2023-02-28T11:11:14;3.17;;;1.08;;
43088;SDS011;28709;52.030;5.652;2023-02-28T11:13:42;4.85;;;1.45;;
43088;SDS011;28709;52.030;5.652;2023-02-28T11:16:10;1.60;;;1.42;;
43088;SDS011;28709;52.030;5.652;2023-02-28T11:18:42;1.73;;;1.08;;
43088;SDS011;28709;52.030;5.652;2023-02-28T11:23:54;2.25;;;0.85;;
43088;SDS011;28709;52.030;5.652;2023-02-28T11:26:40;3.03;;;1.13;;
43088;SDS011;28709;52.030;5.652;2023-02-28T11:29:18;1.98;;;0.90;;
43088;SDS011;28709;52.030;5.652;2023-02-28T11:32:01;5.47;;;0.82;;
43088;SDS011;28709;52.030;5.652;2023-02-28T11:34:37;2.65;;;0.93;;
43088;SDS011;28709;52.030;5.652;2023-02-28T11:37:05;1.98;;;1.20;;
43088;SDS011;28709;52.030;5.652;2023-02-28T11:39:35;1.60;;;0.70;;
43088;SDS011;28709;52.030;5.652;2023-02-28T11:53:17;1.15;;;0.70;;
43088;SDS011;28709;52.030;5.652;2023-02-28T11:55:49;4.78;;;0.98;;
43088;SDS011;28709;52.030;5.652;2023-02-28T12:06:24;1.88;;;1.00;;
43088;SDS011;28709;52.030;5.652;2023-02-28T12:09:08;1.88;;;0.90;;
43088;SDS011;28709;52.030;5.652;2023-02-28T12:11:40;1.77;;;1.00;;
43088;SDS011;28709;52.030;5.652;2023-02-28T12:19:59;1.67;;;1.10;;
43088;SDS011;28709;52.030;5.652;2023-02-28T12:28:13;3.65;;;0.70;;
43088;SDS011;28709;52.030;5.652;2023-02-28T12:30:46;1.95;;;1.00;;
43088;SDS011;28709;52.030;5.652;2023-02-28T12:33:51;1.17;;;1.00;;
43088;SDS011;28709;52.030;5.652;2023-02-28T12:36:20;3.65;;;1.30;;
43088;SDS011;28709;52.030;5.652;2023-02-28T12:41:17;0.85;;;0.80;;
43088;SDS011;28709;52.030;5.652;2023-02-28T12:44:15;1.60;;;1.10;;
43088;SDS011;28709;52.030;5.652;2023-02-28T12:46:50;1.15;;;0.85;;
43088;SDS011;28709;52.030;5.652;2023-02-28T12:49:21;2.10;;;0.95;;
43088;SDS011;28709;52.030;5.652;2023-02-28T12:51:55;1.50;;;0.90;;
43088;SDS011;28709;52.030;5.652;2023-02-28T12:56:58;1.35;;;0.88;;
43088;SDS011;28709;52.030;5.652;2023-02-28T12:59:46;1.27;;;0.93;;
43088;SDS011;28709;52.030;5.652;2023-02-28T13:05:02;2.13;;;0.93;;
43088;SDS011;28709;52.030;5.652;2023-02-28T13:10:49;2.15;;;1.13;;
43088;SDS011;28709;52.030;5.652;2023-02-28T13:13:26;3.85;;;1.30;;
43088;SDS011;28709;52.030;5.652;2023-02-28T13:16:03;2.85;;;1.52;;
43088;SDS011;28709;52.030;5.652;2023-02-28T13:21:02;2.15;;;0.90;;
43088;SDS011;28709;52.030;5.652;2023-02-28T13:23:36;2.03;;;1.30;;
43088;SDS011;28709;52.030;5.652;2023-02-28T13:26:22;1.08;;;0.98;;
43088;SDS011;28709;52.030;5.652;2023-02-28T13:31:13;1.45;;;0.80;;
43088;SDS011;28709;52.030;5.652;2023-02-28T13:38:52;2.50;;;1.10;;
43088;SDS011;28709;52.030;5.652;2023-02-28T13:46:28;1.08;;;0.90;;
43088;SDS011;28709;52.030;5.652;2023-02-28T13:48:54;2.20;;;0.68;;
43088;SDS011;28709;52.030;5.652;2023-02-28T13:51:40;2.42;;;1.00;;
43088;SDS011;28709;52.030;5.652;2023-02-28T13:54:14;1.73;;;0.90;;
43088;SDS011;28709;52.030;5.652;2023-02-28T13:57:28;1.95;;;0.80;;
43088;SDS011;28709;52.030;5.652;2023-02-28T13:59:31;1.23;;;0.82;;
43088;SDS011;28709;52.030;5.652;2023-02-28T14:07:43;1.10;;;0.80;;
43088;SDS011;28709;52.030;5.652;2023-02-28T14:10:20;2.17;;;1.15;;
43088;SDS011;28709;52.030;5.652;2023-02-28T14:18:40;1.15;;;0.75;;
43088;SDS011;28709;52.030;5.652;2023-02-28T14:23:54;1.70;;;1.17;;
43088;SDS011;28709;52.030;5.652;2023-02-28T14:26:48;2.65;;;1.25;;
43088;SDS011;28709;52.030;5.652;2023-02-28T14:38:04;1.20;;;0.93;;
43088;SDS011;28709;52.030;5.652;2023-02-28T14:40:33;2.05;;;1.05;;
43088;SDS011;28709;52.030;5.652;2023-02-28T14:43:04;1.70;;;1.00;;
43088;SDS011;28709;52.030;5.652;2023-02-28T14:45:32;2.20;;;1.08;;
43088;SDS011;28709;52.030;5.652;2023-02-28T14:48:01;1.30;;;1.02;;
43088;SDS011;28709;52.030;5.652;2023-02-28T14:50:33;2.53;;;1.40;;
43088;SDS011;28709;52.030;5.652;2023-02-28T14:53:00;1.95;;;1.30;;
43088;SDS011;28709;52.030;5.652;2023-02-28T14:55:31;1.20;;;1.00;;
43088;SDS011;28709;52.030;5.652;2023-02-28T14:58:02;2.13;;;1.05;;
43088;SDS011;28709;52.030;5.652;2023-02-28T15:00:32;2.30;;;1.20;;
43088;SDS011;28709;52.030;5.652;2023-02-28T15:03:00;3.45;;;1.20;;
43088;SDS011;28709;52.030;5.652;2023-02-28T15:05:42;2.70;;;0.90;;
43088;SDS011;28709;52.030;5.652;2023-02-28T15:08:16;1.67;;;1.07;;
43088;SDS011;28709;52.030;5.652;2023-02-28T15:10:43;1.48;;;1.05;;
43088;SDS011;28709;52.030;5.652;2023-02-28T15:13:15;2.10;;;1.50;;
43088;SDS011;28709;52.030;5.652;2023-02-28T15:15:58;3.33;;;1.00;;
43088;SDS011;28709;52.030;5.652;2023-02-28T15:21:17;1.67;;;1.00;;
43088;SDS011;28709;52.030;5.652;2023-02-28T15:23:49;4.88;;;1.10;;
43088;SDS011;28709;52.030;5.652;2023-02-28T15:26:19;1.73;;;0.80;;
43088;SDS011;28709;52.030;5.652;2023-02-28T15:28:51;4.05;;;1.42;;
43088;SDS011;28709;52.030;5.652;2023-02-28T15:31:32;2.97;;;1.20;;
43088;SDS011;28709;52.030;5.652;2023-02-28T15:34:06;2.20;;;1.23;;
43088;SDS011;28709;52.030;5.652;2023-02-28T15:36:42;1.58;;;0.98;;
43088;SDS011;28709;52.030;5.652;2023-02-28T15:39:22;1.98;;;1.13;;
43088;SDS011;28709;52.030;5.652;2023-02-28T15:42:10;3.10;;;1.20;;
43088;SDS011;28709;52.030;5.652;2023-02-28T15:44:37;1.98;;;1.17;;
43088;SDS011;28709;52.030;5.652;2023-02-28T15:47:07;1.63;;;0.80;;
43088;SDS011;28709;52.030;5.652;2023-02-28T15:50:23;1.38;;;1.13;;
43088;SDS011;28709;52.030;5.652;2023-02-28T15:52:38;6.88;;;1.30;;
43088;SDS011;28709;52.030;5.652;2023-02-28T15:57:44;1.00;;;0.80;;
43088;SDS011;28709;52.030;5.652;2023-02-28T16:00:14;0.90;;;0.70;;
43088;SDS011;28709;52.030;5.652;2023-02-28T16:02:41;1.70;;;1.00;;
43088;SDS011;28709;52.030;5.652;2023-02-28T16:07:33;1.30;;;0.90;;
43088;SDS011;28709;52.030;5.652;2023-02-28T16:10:03;1.63;;;0.82;;
43088;SDS011;28709;52.030;5.652;2023-02-28T16:12:30;2.95;;;1.20;;
43088;SDS011;28709;52.030;5.652;2023-02-28T16:14:58;1.00;;;0.90;;
43088;SDS011;28709;52.030;5.652;2023-02-28T16:17:37;4.20;;;1.30;;
43088;SDS011;28709;52.030;5.652;2023-02-28T16:20:21;2.42;;;1.00;;
43088;SDS011;28709;52.030;5.652;2023-02-28T16:22:51;2.70;;;1.20;;
43088;SDS011;28709;52.030;5.652;2023-02-28T16:25:19;1.95;;;1.15;;
43088;SDS011;28709;52.030;5.652;2023-02-28T16:27:48;1.98;;;1.20;;
43088;SDS011;28709;52.030;5.652;2023-02-28T16:30:25;1.80;;;0.90;;
43088;SDS011;28709;52.030;5.652;2023-02-28T16:32:53;1.08;;;0.80;;
43088;SDS011;28709;52.030;5.652;2023-02-28T16:35:20;2.30;;;1.00;;
43088;SDS011;28709;52.030;5.652;2023-02-28T16:37:46;1.10;;;0.85;;
43088;SDS011;28709;52.030;5.652;2023-02-28T16:40:16;1.30;;;0.90;;
43088;SDS011;28709;52.030;5.652;2023-02-28T16:42:45;1.88;;;1.10;;
43088;SDS011;28709;52.030;5.652;2023-02-28T16:45:23;4.88;;;1.00;;
43088;SDS011;28709;52.030;5.652;2023-02-28T16:47:51;2.67;;;1.25;;
43088;SDS011;28709;52.030;5.652;2023-02-28T16:50:20;1.23;;;0.88;;
43088;SDS011;28709;52.030;5.652;2023-02-28T16:52:48;1.73;;;0.90;;
43088;SDS011;28709;52.030;5.652;2023-02-28T16:55:17;1.80;;;1.05;;
43088;SDS011;28709;52.030;5.652;2023-02-28T16:57:43;1.33;;;0.80;;
43088;SDS011;28709;52.030;5.652;2023-02-28T17:00:12;1.40;;;0.88;;
43088;SDS011;28709;52.030;5.652;2023-02-28T17:02:38;2.33;;;1.52;;
43088;SDS011;28709;52.030;5.652;2023-02-28T17:05:05;2.40;;;1.27;;
43088;SDS011;28709;52.030;5.652;2023-02-28T17:07:31;1.67;;;0.95;;
43088;SDS011;28709;52.030;5.652;2023-02-28T17:09:58;1.40;;;1.00;;
43088;SDS011;28709;52.030;5.652;2023-02-28T17:12:25;1.40;;;1.05;;
43088;SDS011;28709;52.030;5.652;2023-02-28T17:14:51;1.13;;;1.00;;
43088;SDS011;28709;52.030;5.652;2023-02-28T17:17:17;1.92;;;1.00;;
43088;SDS011;28709;52.030;5.652;2023-02-28T17:19:45;1.40;;;1.00;;
43088;SDS011;28709;52.030;5.652;2023-02-28T17:22:11;1.27;;;0.60;;
43088;SDS011;28709;52.030;5.652;2023-02-28T17:24:37;1.65;;;0.77;;
43088;SDS011;28709;52.030;5.652;2023-02-28T17:27:03;1.42;;;0.90;;
43088;SDS011;28709;52.030;5.652;2023-02-28T17:29:29;2.35;;;1.00;;
43088;SDS011;28709;52.030;5.652;2023-02-28T17:31:55;1.30;;;0.88;;
43088;SDS011;28709;52.030;5.652;2023-02-28T17:34:21;0.70;;;0.60;;
43088;SDS011;28709;52.030;5.652;2023-02-28T17:36:47;0.93;;;0.65;;
43088;SDS011;28709;52.030;5.652;2023-02-28T17:39:14;1.30;;;0.80;;